DW8209 Gubbio IT current weather conditions

sailwx.info

Wind from 155 at 6 knots gusting 18

Air temperature 17.2° C
Dewpoint 10.6° C

Last reported at 2017-Apr-26 13:02 UTC.
Time now 2017-Apr-26 13:55 UTC

Location: N 43°19' E 012°34'.
View on Google Maps.

See reports from other nearby stations

  
Tides and Currents Weather Stations Pressure Air Temp Water Temp Dewpoint Dewpoint Depression Visibility Wind Speed Wind Dir Waves Ship Positions
date/time (UTC)wind fromknots sea level pressurealtimeterstation pressurevisibilityair tempwater tempwave heightnotes
2017-Apr-26 13:02 155 6 gusting 18 17.2
2017-Apr-26 12:47 134 6 gusting 13 17.2
2017-Apr-26 12:32 155 6 gusting 15 17.8
2017-Apr-26 12:17 253 6 gusting 15 17.8
2017-Apr-26 12:02 214 6 gusting 16 17.2
2017-Apr-26 11:47 153 6 gusting 17 16.7
2017-Apr-26 11:31 165 7 gusting 18 16.1
2017-Apr-26 11:16 146 5 gusting 13 16.1
2017-Apr-26 11:01 184 7 gusting 16 15.6
2017-Apr-26 10:46 127 5 gusting 13 15.6
2017-Apr-26 10:31 203 6 gusting 11 16.1
2017-Apr-26 10:16 187 5 gusting 10 16.1
2017-Apr-26 10:01 197 11 gusting 20 16.7
2017-Apr-26 09:46 176 12 gusting 20 16.1
2017-Apr-26 09:31 219 7 gusting 13 15.6
2017-Apr-26 09:16 239 6 gusting 13 15.6
2017-Apr-26 09:01 205 7 gusting 16 15.0
2017-Apr-26 08:46 191 8 gusting 23 15.6
2017-Apr-26 08:31 214 8 gusting 28 15.6
2017-Apr-26 08:16 271 6 gusting 18 15.6
2017-Apr-26 08:01 187 4 gusting 10 15.0
2017-Apr-26 07:46 146 3 gusting 9 15.0
2017-Apr-26 07:31 229 3 gusting 8 13.9
2017-Apr-26 07:16 270 2 gusting 5 11.7
2017-Apr-26 07:01 297 1 gusting 3 10.0
2017-Apr-26 06:46 297 8.9
2017-Apr-26 06:31 120 7.8
2017-Apr-26 06:16 271 7.2
2017-Apr-26 06:01 231 6.7
2017-Apr-26 05:46 228 6.1
2017-Apr-26 05:31 228 5.6
2017-Apr-26 05:16 228 5.6
2017-Apr-26 05:01 345 5.0
2017-Apr-26 04:46 271 5.0
2017-Apr-26 04:31 221 5.0
2017-Apr-26 04:15 231 5.0
2017-Apr-26 04:00 277 5.0
2017-Apr-26 03:45 278 5.6
2017-Apr-26 03:30 283 6.1
2017-Apr-26 03:15 212 5.6
2017-Apr-26 03:00 288 5.6
2017-Apr-26 02:45 288 6.1
2017-Apr-26 02:30 288 6.7
2017-Apr-26 02:15 273 6.7
2017-Apr-26 02:00 271 6.7
2017-Apr-26 01:45 113 6.7
2017-Apr-26 01:16 237 7.2
2017-Apr-26 00:46 295 7.8
2017-Apr-26 00:30 243 8.3
2017-Apr-26 00:15 056 8.9
2017-Apr-26 00:00 155 8.9
2017-Apr-25 23:45 145 9.4
2017-Apr-25 23:30 218 0 gusting 4 10.0
2017-Apr-25 23:15 107 0 gusting 2 10.0
2017-Apr-25 23:00 122 1 gusting 4 10.6
2017-Apr-25 22:58 137 2 gusting 4 10.6
2017-Apr-25 19:59 094 2 gusting 3 12.2
2017-Apr-25 19:44 094 12.8
2017-Apr-25 19:29 198 0 gusting 4 13.3
2017-Apr-25 19:14 153 0 gusting 3 13.9
2017-Apr-25 18:59 224 3 gusting 6 13.9
2017-Apr-25 18:44 242 3 gusting 6 13.9
2017-Apr-25 18:29 248 2 gusting 5 14.4
2017-Apr-25 18:15 233 0 gusting 3 15.6
2017-Apr-25 17:59 231 1 gusting 4 15.6
2017-Apr-25 17:44 241 1 gusting 5 16.1
2017-Apr-25 17:29 259 3 gusting 7 16.7
2017-Apr-25 17:14 250 3 gusting 7 17.2
2017-Apr-25 16:59 263 3 gusting 7 17.8
2017-Apr-25 16:44 267 6 gusting 10 17.8
2017-Apr-25 16:29 248 4 gusting 13 17.8
2017-Apr-25 16:14 257 6 gusting 9 17.8
2017-Apr-25 15:59 214 6 gusting 13 18.3
2017-Apr-25 15:44 167 1 gusting 7 18.3
2017-Apr-25 15:29 242 5 gusting 9 17.8
2017-Apr-25 15:14 203 3 gusting 6 18.3
2017-Apr-25 14:59 248 5 gusting 11 18.3
2017-Apr-25 14:44 261 5 gusting 11 18.9
2017-Apr-25 14:29 211 4 gusting 12 17.8
2017-Apr-25 14:14 208 0 gusting 11 18.3
2017-Apr-25 13:59 189 3 gusting 12 17.8
2017-Apr-25 13:44 210 1 gusting 8 17.2
2017-Apr-25 13:29 259 2 gusting 6 17.8
2017-Apr-25 13:14 267 6 gusting 12 17.2
2017-Apr-25 12:59 193 5 gusting 11 17.2
2017-Apr-25 12:44 204 6 gusting 12 17.8
2017-Apr-25 12:29 290 6 gusting 13 17.8
2017-Apr-25 12:14 210 7 gusting 13 17.8
2017-Apr-25 11:59 208 6 gusting 12 17.8
2017-Apr-25 11:44 204 4 gusting 7 17.8
2017-Apr-25 11:29 195 4 gusting 15 17.2
2017-Apr-25 11:14 191 4 gusting 12 17.2
2017-Apr-25 10:59 193 4 gusting 9 16.7
2017-Apr-25 10:44 240 3 gusting 10 16.1
2017-Apr-25 10:29 193 5 gusting 9 16.7
2017-Apr-25 10:15 131 5 gusting 10 16.1
2017-Apr-25 09:59 128 2 gusting 12 16.1
2017-Apr-25 09:43 214 4 gusting 14 15.6
2017-Apr-25 09:28 203 6 gusting 13 15.6
2017-Apr-25 09:13 170 6 gusting 12 15.0
2017-Apr-25 08:58 131 2 gusting 9 15.0
2017-Apr-25 08:43 148 4 gusting 11 14.4
2017-Apr-25 08:28 169 5 gusting 12 14.4
2017-Apr-25 08:13 206 3 gusting 9 13.9
2017-Apr-25 07:58 053 3 gusting 5 12.8
2017-Apr-25 07:43 026 1 gusting 3 12.2
2017-Apr-25 07:28 072 3 gusting 6 11.7
2017-Apr-25 07:13 084 4 gusting 6 11.7
2017-Apr-25 06:58 076 3 gusting 5 11.1
2017-Apr-25 06:46 101 2 gusting 5 10.6
2017-Apr-25 06:36 099 2 gusting 4 10.0
2017-Apr-25 06:13 088 2 gusting 3 9.4
2017-Apr-25 05:58 273 8.9
2017-Apr-25 05:42 273 7.2
2017-Apr-25 05:27 274 6.1
2017-Apr-25 05:12 274 6.1
2017-Apr-25 04:57 260 6.1
2017-Apr-25 04:42 336 5.6
2017-Apr-25 04:27 326 5.6
2017-Apr-25 04:12 278 5.6
2017-Apr-25 03:58 285 5.6
2017-Apr-25 03:42 314 0 gusting 2 5.6
2017-Apr-25 03:27 297 1 gusting 2 5.6
2017-Apr-25 03:13 290 0 gusting 2 5.6
2017-Apr-25 02:57 266 0 gusting 1 5.6
2017-Apr-25 02:42 338 0 gusting 1 5.0
2017-Apr-25 02:27 274 5.0
2017-Apr-25 02:12 276 5.0
2017-Apr-25 01:57 276 5.0
2017-Apr-25 01:42 277 5.0
2017-Apr-25 01:27 266 5.0
2017-Apr-25 01:12 257 5.6
2017-Apr-25 00:57 243 5.0
2017-Apr-25 00:42 188 5.0
2017-Apr-25 00:27 217 5.6
2017-Apr-25 00:12 079 6.1
2017-Apr-24 23:57 056 6.1
2017-Apr-24 23:42 238 6.7
2017-Apr-24 23:27 124 0 gusting 2 6.7
2017-Apr-24 23:12 217 7.8
2017-Apr-24 22:57 253 7.8
2017-Apr-24 22:42 287 8.3
2017-Apr-24 22:27 287 10.0
2017-Apr-24 22:11 321 0 gusting 2 10.0
2017-Apr-24 21:56 285 9.4
2017-Apr-24 21:41 276 9.4
2017-Apr-24 21:26 218 10.0
2017-Apr-24 21:11 138 0 gusting 2 10.6
2017-Apr-24 20:56 077 10.6
2017-Apr-24 20:41 080 10.0
2017-Apr-24 20:26 131 10.6
2017-Apr-24 20:11 197 11.1
2017-Apr-24 19:56 111 12.2
2017-Apr-24 19:41 093 3 gusting 3 12.8
2017-Apr-24 19:26 083 12.8
2017-Apr-24 19:11 082 0 gusting 2 13.3
2017-Apr-24 18:56 138 13.3
2017-Apr-24 18:41 105 0 gusting 1 13.9
2017-Apr-24 18:26 271 14.4
2017-Apr-24 18:11 284 2 gusting 6 15.0
2017-Apr-24 17:56 285 2 gusting 5 15.6
2017-Apr-24 17:42 256 4 gusting 6 16.1
2017-Apr-24 17:26 233 2 gusting 7 17.2
2017-Apr-24 17:11 172 3 gusting 5 17.8
2017-Apr-24 16:56 200 3 gusting 6 17.8
2017-Apr-24 16:41 241 5 gusting 6 17.2
2017-Apr-24 16:27 233 1 gusting 4 18.3
2017-Apr-24 16:11 249 2 gusting 4 17.8
2017-Apr-24 15:56 265 2 gusting 6 18.3
2017-Apr-24 15:41 276 2 gusting 5 19.4
2017-Apr-24 15:26 188 1 gusting 6 17.8
2017-Apr-24 15:11 208 6 gusting 9 18.3
2017-Apr-24 14:56 186 3 gusting 7 18.3
2017-Apr-24 14:41 239 2 gusting 6 18.9
2017-Apr-24 14:26 162 0 gusting 6 18.3
2017-Apr-24 14:11 231 4 gusting 8 18.3
2017-Apr-24 13:56 277 3 gusting 9 18.9
2017-Apr-24 13:41 212 6 gusting 12 18.9
2017-Apr-24 13:26 148 4 gusting 8 18.9
2017-Apr-24 13:11 136 3 gusting 11 18.3